To NAV CANADA Home Page Login to a new session Search on AWWS site Disclaimer Vers la page française équivalente Tips FAQ What's new on the site To the Forecasts and Observations / NOTAM section To "File a Flight Plan" website Publications and other links Update of the User's profile FIC Telephone Numbers My Weather Data Folder Route Weather Data Regional Weather Data Local Weather Data To the Forecasts and Observations / NOTAM section
Request Generated 04/24/2019 at 16:15:38 UTC . Weather information available at that time is displayed.

METAR/TAF

GORE BAY-MANITOULIN/ON    (show WxCam)

METAR CYZE 241600Z AUTO 26007KT 9SM CLR 07/02 A2997 RMK SLP156=
METAR CYZE 241500Z AUTO 32004KT 280V340 9SM CLR 06/01 A2998 RMK SLP160=
METAR CYZE 241400Z AUTO 33007KT 290V360 9SM CLR 05/00 A2997 RMK SLP158=

TAF CYZE 241338Z 2414/2422 33009KT P6SM SKC
BECMG 2418/2420 25008KT
RMK FCST BASED ON AUTO OBS. NXT FCST BY 242000Z=
Your time UTC time
Weather data provided by Environment Canada and NAV CANADA